Time;durP1;ratioP1;P1;durP2;ratioP2;P2;SDS_P1;SDS_P2;PMS_P1;PMS_P2;Temp;Humidity;BMP_temperature;BMP_pressure;BME280_temperature;BME280_humidity;BME280_pressure;Samples;Min_cycle;Max_cycle;Signal;HPM_P1;HPM_P2
2022/04/30 00:03:38;;;;;;;9.30;6.30;;;22.20;52.50;;;;;;215422;1296;24259;-39
2022/04/30 00:08:42;;;;;;;12.30;5.70;;;22.10;52.60;;;;;;215421;1294;22662;-40
2022/04/30 00:13:46;;;;;;;8.40;4.90;;;22.10;52.30;;;;;;215776;1294;25549;-40
2022/04/30 00:18:51;;;;;;;11.10;5.40;;;22.10;52.20;;;;;;215477;1294;22679;-39
2022/04/30 00:23:56;;;;;;;10.60;6.00;;;22.10;52.30;;;;;;215690;1293;24410;-41
2022/04/30 00:29:00;;;;;;;10.60;5.70;;;22.00;52.50;;;;;;215576;1293;24299;-41
2022/04/30 00:34:04;;;;;;;9.30;5.70;;;22.00;52.20;;;;;;215790;1296;22575;-41
2022/04/30 00:39:08;;;;;;;11.70;5.20;;;22.00;52.20;;;;;;215646;1293;24417;-40
2022/04/30 00:44:17;;;;;;;8.40;5.40;;;22.00;52.60;;;;;;215736;1294;22610;-41
2022/04/30 00:49:22;;;;;;;10.20;5.20;;;22.00;52.20;;;;;;215727;1294;24864;-41
2022/04/30 00:54:28;;;;;;;10.70;5.50;;;21.90;52.20;;;;;;215632;1293;22888;-40
2022/04/30 00:59:35;;;;;;;11.20;5.10;;;21.90;52.30;;;;;;215304;1293;22599;-40
2022/04/30 01:04:39;;;;;;;11.40;5.80;;;22.00;52.80;;;;;;215552;1294;23365;-41
2022/04/30 01:09:46;;;;;;;9.70;5.20;;;22.50;52.30;;;;;;215584;1293;24288;-42
2022/04/30 01:14:54;;;;;;;9.30;5.30;;;22.70;51.40;;;;;;215916;1294;22716;-41
2022/04/30 01:19:59;;;;;;;9.80;5.10;;;23.00;50.60;;;;;;215731;1294;24941;-39
2022/04/30 01:25:04;;;;;;;8.80;4.70;;;23.10;50.40;;;;;;215908;1293;22950;-40
2022/04/30 01:30:10;;;;;;;11.00;5.10;;;23.30;49.80;;;;;;215840;1294;24347;-40
2022/04/30 01:40:37;;;;;;;9.00;5.50;;;23.50;49.50;;;;;;215927;1293;22641;-40
2022/04/30 01:45:44;;;;;;;7.40;4.40;;;23.50;49.30;;;;;;215955;1293;22667;-41
2022/04/30 01:50:47;;;;;;;7.60;4.60;;;23.60;49.30;;;;;;215635;1294;22559;-41
2022/04/30 01:55:51;;;;;;;11.20;5.10;;;23.70;48.90;;;;;;215570;1293;25298;-40
2022/04/30 02:01:07;;;;;;;10.00;5.30;;;23.70;49.20;;;;;;215906;1294;22656;-41
2022/04/30 02:06:11;;;;;;;9.50;5.10;;;23.60;49.00;;;;;;216008;1293;23503;-41
2022/04/30 02:11:15;;;;;;;8.90;4.90;;;23.50;48.90;;;;;;215982;1293;25643;-41
2022/04/30 02:16:23;;;;;;;10.20;5.30;;;23.40;49.20;;;;;;215819;1293;22784;-40
2022/04/30 02:21:29;;;;;;;7.70;4.80;;;23.30;49.50;;;;;;215567;1294;22644;-41
2022/04/30 02:26:33;;;;;;;9.00;5.20;;;23.20;49.60;;;;;;215822;1294;22638;-41
2022/04/30 02:31:37;;;;;;;8.60;5.00;;;23.00;49.70;;;;;;215814;1293;25333;-40
2022/04/30 02:36:41;;;;;;;9.20;5.10;;;23.00;50.20;;;;;;215544;1293;22652;-40
2022/04/30 02:41:44;;;;;;;8.10;5.00;;;22.90;49.90;;;;;;215516;1294;22874;-38
2022/04/30 02:46:48;;;;;;;8.10;5.20;;;22.90;50.10;;;;;;215671;1294;25452;-41
2022/04/30 02:51:52;;;;;;;8.80;5.20;;;22.80;50.40;;;;;;215685;1293;24324;-40
2022/04/30 02:56:56;;;;;;;9.60;5.70;;;22.80;50.20;;;;;;215713;1294;22589;-39
2022/04/30 03:02:03;;;;;;;8.30;5.40;;;22.70;50.30;;;;;;215822;1293;23145;-41
2022/04/30 03:07:16;;;;;;;9.80;5.10;;;22.70;50.50;;;;;;215944;1294;25287;-40
2022/04/30 03:12:20;;;;;;;9.60;5.40;;;22.70;50.50;;;;;;215920;1294;23140;-41
2022/04/30 03:22:47;;;;;;;8.00;5.20;;;22.60;50.90;;;;;;215974;1294;26525;-41
2022/04/30 03:27:50;;;;;;;7.70;4.90;;;22.50;50.50;;;;;;215824;1293;25379;-40
2022/04/30 03:32:55;;;;;;;8.70;5.00;;;22.50;50.80;;;;;;215513;1293;23020;-40
2022/04/30 03:37:58;;;;;;;9.30;6.10;;;22.50;50.90;;;;;;215593;1296;24259;-40
2022/04/30 03:43:02;;;;;;;8.40;5.40;;;22.50;50.90;;;;;;215011;1296;25280;-42
2022/04/30 03:48:06;;;;;;;12.30;6.10;;;22.40;50.90;;;;;;215452;1293;25233;-40
2022/04/30 03:53:10;;;;;;;8.90;5.40;;;22.40;50.90;;;;;;215349;1293;22570;-39
2022/04/30 03:58:14;;;;;;;8.80;5.50;;;22.30;51.60;;;;;;215389;1293;25283;-41
2022/04/30 04:03:17;;;;;;;9.70;5.10;;;22.30;51.10;;;;;;215569;1293;25410;-40
2022/04/30 04:08:22;;;;;;;10.60;5.70;;;22.30;51.10;;;;;;215169;1293;25317;-39
2022/04/30 04:18:59;;;;;;;8.20;5.10;;;22.20;51.50;;;;;;215857;1293;22589;-41
2022/04/30 04:29:25;;;;;;;11.10;5.50;;;22.20;51.40;;;;;;215653;1293;24367;-40
2022/04/30 04:34:29;;;;;;;9.10;5.50;;;22.10;51.40;;;;;;215703;1293;25402;-40
2022/04/30 04:39:33;;;;;;;7.80;4.80;;;22.00;51.40;;;;;;215185;1293;22707;-40
2022/04/30 04:44:37;;;;;;;7.80;5.20;;;22.10;51.60;;;;;;215566;1293;22598;-39
2022/04/30 04:49:42;;;;;;;8.30;5.40;;;22.10;51.50;;;;;;215516;1296;25296;-42
2022/04/30 04:54:46;;;;;;;9.10;5.10;;;22.00;51.50;;;;;;216029;1294;22725;-40
2022/04/30 04:59:51;;;;;;;9.60;5.50;;;22.00;51.60;;;;;;215590;1294;22579;-40
2022/04/30 05:04:55;;;;;;;8.20;5.00;;;22.00;51.60;;;;;;215663;1293;25408;-40
2022/04/30 05:09:58;;;;;;;9.40;5.00;;;22.00;51.60;;;;;;215345;1294;23945;-39
2022/04/30 05:15:03;;;;;;;10.00;5.60;;;22.30;51.90;;;;;;215761;1293;24348;-41
2022/04/30 05:20:11;;;;;;;8.10;4.80;;;22.60;50.70;;;;;;215840;1293;25438;-39
2022/04/30 05:25:36;;;;;;;8.40;4.80;;;22.80;50.40;;;;;;215757;1293;22769;-41
2022/04/30 05:30:40;;;;;;;8.30;4.90;;;23.00;49.50;;;;;;215971;1293;22570;-40
2022/04/30 05:35:44;;;;;;;7.40;4.90;;;23.20;49.50;;;;;;215433;1294;22752;-41
2022/04/30 05:40:53;;;;;;;7.60;4.70;;;23.30;49.10;;;;;;215500;1293;22634;-41
2022/04/30 05:45:58;;;;;;;9.50;5.50;;;23.30;48.60;;;;;;215699;1293;22691;-41
2022/04/30 05:51:02;;;;;;;9.20;5.30;;;23.50;48.50;;;;;;215661;1293;22585;-40
2022/04/30 05:56:07;;;;;;;8.60;4.60;;;23.50;48.30;;;;;;215595;1293;22747;-39
2022/04/30 06:01:11;;;;;;;7.60;4.80;;;23.60;48.10;;;;;;215275;1293;24444;-39
2022/04/30 06:06:15;;;;;;;8.60;5.00;;;23.60;48.00;;;;;;215407;1293;24253;-41
2022/04/30 06:11:19;;;;;;;7.10;4.50;;;23.60;48.00;;;;;;215401;1293;22569;-40
2022/04/30 06:16:22;;;;;;;6.70;4.80;;;23.50;48.10;;;;;;215421;1293;22610;-42
2022/04/30 06:21:29;;;;;;;8.40;4.80;;;23.40;48.30;;;;;;215092;1296;23669;-41
2022/04/30 06:26:33;;;;;;;7.60;4.40;;;23.30;48.50;;;;;;215502;1296;25337;-40
2022/04/30 06:31:38;;;;;;;8.90;5.40;;;23.20;49.30;;;;;;215418;1294;22714;-40
2022/04/30 06:36:42;;;;;;;6.50;4.20;;;23.10;48.90;;;;;;215629;1293;22667;-40
2022/04/30 06:41:45;;;;;;;7.20;4.80;;;23.10;49.10;;;;;;215813;1293;22675;-42
2022/04/30 06:46:49;;;;;;;9.40;4.70;;;23.00;49.60;;;;;;215854;1293;24354;-41
2022/04/30 06:51:53;;;;;;;7.30;4.80;;;22.90;49.40;;;;;;215455;1293;22772;-41
2022/04/30 06:57:16;;;;;;;7.10;4.30;;;22.90;49.50;;;;;;215492;1293;22594;-41
2022/04/30 07:02:22;;;;;;;7.30;4.70;;;22.90;49.70;;;;;;215918;1293;22586;-40
2022/04/30 07:07:26;;;;;;;9.90;4.40;;;22.80;49.80;;;;;;215917;1293;22612;-40
2022/04/30 07:12:29;;;;;;;8.10;4.10;;;22.80;50.10;;;;;;215845;1293;22653;-40
2022/04/30 07:17:33;;;;;;;8.70;5.00;;;22.80;50.10;;;;;;215133;1294;24328;-41
2022/04/30 07:22:47;;;;;;;10.00;4.40;;;22.70;50.10;;;;;;215082;1296;22720;-41
2022/04/30 07:27:51;;;;;;;6.70;4.60;;;22.80;50.30;;;;;;215220;1293;25391;-40
2022/04/30 07:32:55;;;;;;;7.90;4.30;;;22.70;50.60;;;;;;215898;1293;22687;-40
2022/04/30 07:37:59;;;;;;;12.10;4.50;;;22.60;50.50;;;;;;215569;1293;22689;-39
2022/04/30 07:43:03;;;;;;;7.80;4.60;;;22.70;50.90;;;;;;215806;1293;22643;-40
2022/04/30 07:48:11;;;;;;;9.90;4.40;;;22.70;50.90;;;;;;215912;1293;23980;-41
2022/04/30 07:53:18;;;;;;;8.60;4.50;;;22.60;51.30;;;;;;215796;1293;22716;-44
2022/04/30 07:58:22;;;;;;;14.50;4.80;;;22.70;50.90;;;;;;222901;1293;22380;-42
2022/04/30 08:03:26;;;;;;;8.60;5.00;;;22.70;51.00;;;;;;222636;1296;22362;-44
2022/04/30 08:08:31;;;;;;;7.50;4.90;;;22.70;51.40;;;;;;222924;1295;22339;-42
2022/04/30 08:13:40;;;;;;;6.90;4.40;;;22.70;51.80;;;;;;217105;1293;24345;-39
2022/04/30 08:18:43;;;;;;;7.10;4.20;;;22.70;52.20;;;;;;215542;1293;22744;-45
2022/04/30 08:23:47;;;;;;;10.30;4.50;;;22.70;51.30;;;;;;214684;1293;22615;-45
2022/04/30 08:28:51;;;;;;;12.40;4.90;;;22.70;51.50;;;;;;214849;1293;22560;-45
2022/04/30 08:34:12;;;;;;;10.20;4.70;;;22.70;51.60;;;;;;222618;1296;22396;-43
2022/04/30 08:39:18;;;;;;;9.90;4.30;;;22.70;51.60;;;;;;222683;1293;22180;-42
2022/04/30 08:44:35;;;;;;;7.60;4.30;;;22.70;51.50;;;;;;222736;1293;22332;-48
2022/04/30 08:49:42;;;;;;;10.80;4.30;;;22.70;51.60;;;;;;218409;1293;25031;-43
2022/04/30 08:54:46;;;;;;;7.00;4.60;;;22.80;51.40;;;;;;215120;1293;22585;-42
2022/04/30 08:59:51;;;;;;;9.90;4.00;;;22.80;51.40;;;;;;215415;1296;25217;-43
2022/04/30 09:05:03;;;;;;;7.90;4.70;;;22.80;51.40;;;;;;215468;1293;22733;-42
2022/04/30 09:10:20;;;;;;;17.00;5.70;;;22.80;51.30;;;;;;215407;1293;22600;-42
2022/04/30 09:15:25;;;;;;;7.00;3.80;;;22.80;52.70;;;;;;215587;1293;22824;-41
2022/04/30 09:20:30;;;;;;;11.40;4.70;;;22.80;52.30;;;;;;215228;1294;22586;-42
2022/04/30 09:25:51;;;;;;;13.40;4.80;;;22.90;53.70;;;;;;215218;1296;25284;-41
2022/04/30 09:31:08;;;;;;;8.20;4.10;;;22.90;54.30;;;;;;215168;1293;22629;-44
2022/04/30 09:41:36;;;;;;;8.50;4.20;;;23.00;54.10;;;;;;215439;1293;22733;-42
2022/04/30 09:46:40;;;;;;;14.10;4.80;;;22.90;54.10;;;;;;215545;1294;22808;-43
2022/04/30 09:57:14;;;;;;;11.80;4.70;;;23.00;53.70;;;;;;215611;1293;24292;-44
2022/04/30 10:02:19;;;;;;;8.10;4.30;;;23.00;53.50;;;;;;215541;1293;24279;-42
2022/04/30 10:07:25;;;;;;;6.90;3.70;;;23.00;53.50;;;;;;215669;1293;22813;-43
2022/04/30 10:12:48;;;;;;;12.70;3.90;;;23.00;53.30;;;;;;215968;1293;26530;-46
2022/04/30 10:17:57;;;;;;;15.90;4.50;;;23.10;53.20;;;;;;215887;1293;22677;-43
2022/04/30 10:23:06;;;;;;;14.70;4.40;;;23.20;52.80;;;;;;215947;1293;25551;-47
2022/04/30 10:28:10;;;;;;;11.70;4.30;;;23.30;53.00;;;;;;215575;1293;22585;-45
2022/04/30 10:33:20;;;;;;;12.00;4.40;;;23.30;52.00;;;;;;215865;1293;22674;-44
2022/04/30 10:38:25;;;;;;;14.10;4.40;;;23.40;51.80;;;;;;215512;1293;24924;-43
2022/04/30 10:43:41;;;;;;;12.40;4.30;;;23.30;51.70;;;;;;215302;1293;22815;-43
2022/04/30 10:48:44;;;;;;;;;;;23.30;50.40;;;;;;218551;1293;22592;-44
2022/04/30 10:53:48;;;;;;;11.30;4.30;;;23.30;50.50;;;;;;215829;1293;23761;-44
2022/04/30 10:58:54;;;;;;;16.30;4.60;;;23.30;51.00;;;;;;216007;1293;22585;-43
2022/04/30 11:04:00;;;;;;;15.80;4.70;;;23.30;50.30;;;;;;215644;1296;24542;-44
2022/04/30 11:09:06;;;;;;;13.70;4.70;;;23.30;50.10;;;;;;215975;1293;25005;-45
2022/04/30 11:14:11;;;;;;;11.20;5.00;;;23.30;50.40;;;;;;215875;1293;22726;-43
2022/04/30 11:19:20;;;;;;;12.40;4.80;;;23.30;50.10;;;;;;215765;1293;22566;-42
2022/04/30 11:24:27;;;;;;;12.80;4.80;;;23.40;50.20;;;;;;215821;1292;24162;-42
2022/04/30 11:29:33;;;;;;;11.00;4.70;;;23.40;50.20;;;;;;215904;1293;23086;-44
2022/04/30 11:34:39;;;;;;;10.10;4.60;;;23.40;49.80;;;;;;215675;1293;22594;-44
2022/04/30 11:39:42;;;;;;;13.60;5.40;;;23.40;49.70;;;;;;215689;1293;22603;-42
2022/04/30 11:44:52;;;;;;;12.30;4.60;;;23.50;49.60;;;;;;215986;1293;22848;-43
2022/04/30 11:50:08;;;;;;;13.00;4.60;;;23.50;49.30;;;;;;216115;1293;25581;-44
2022/04/30 11:55:13;;;;;;;11.40;5.00;;;23.50;49.10;;;;;;215907;1293;25495;-42
2022/04/30 12:00:19;;;;;;;13.80;4.80;;;23.50;49.10;;;;;;216053;1292;24157;-43
2022/04/30 12:05:22;;;;;;;12.50;4.70;;;23.50;49.30;;;;;;216092;1293;22562;-45
2022/04/30 12:10:26;;;;;;;14.40;5.80;;;23.60;48.80;;;;;;216163;1293;24701;-44
2022/04/30 12:15:32;;;;;;;11.90;5.40;;;23.60;49.40;;;;;;216092;1293;22627;-44
2022/04/30 12:26:03;;;;;;;13.70;5.50;;;23.60;52.20;;;;;;215374;1294;25319;-45
2022/04/30 12:31:14;;;;;;;11.00;4.90;;;23.70;50.50;;;;;;215483;1293;24344;-45
2022/04/30 12:36:18;;;;;;;9.70;4.90;;;23.60;50.50;;;;;;215880;1293;23942;-42
2022/04/30 12:41:23;;;;;;;10.00;4.30;;;23.60;50.60;;;;;;215593;1293;22570;-44
2022/04/30 12:46:27;;;;;;;10.70;4.80;;;23.60;50.20;;;;;;215711;1293;22570;-44
2022/04/30 12:51:32;;;;;;;9.60;4.70;;;23.60;50.20;;;;;;215908;1293;22748;-45
2022/04/30 12:56:37;;;;;;;14.60;4.60;;;23.60;50.10;;;;;;215923;1293;22609;-44
2022/04/30 13:01:41;;;;;;;10.50;4.80;;;23.60;49.80;;;;;;215998;1293;22667;-43
2022/04/30 13:06:46;;;;;;;9.80;4.90;;;23.60;49.80;;;;;;215798;1294;24288;-42
2022/04/30 13:17:12;;;;;;;12.70;4.50;;;23.60;49.50;;;;;;215573;1293;25653;-45
2022/04/30 13:22:19;;;;;;;13.10;4.40;;;23.60;49.40;;;;;;216004;1293;22655;-43
2022/04/30 13:27:23;;;;;;;9.80;4.40;;;23.50;49.30;;;;;;215906;1293;26510;-46
2022/04/30 13:32:28;;;;;;;8.20;3.90;;;23.50;49.30;;;;;;216037;1293;25406;-43
2022/04/30 13:37:31;;;;;;;9.10;4.20;;;23.50;49.40;;;;;;216038;1293;26278;-42
2022/04/30 13:42:35;;;;;;;9.80;4.60;;;23.50;49.30;;;;;;215815;1293;23922;-43
2022/04/30 13:47:40;;;;;;;7.60;3.80;;;23.50;49.20;;;;;;216098;1293;23990;-45
2022/04/30 13:52:45;;;;;;;12.00;4.20;;;23.50;49.10;;;;;;216002;1293;22802;-43
2022/04/30 13:57:49;;;;;;;7.40;3.80;;;23.50;48.70;;;;;;215851;1294;22572;-46
2022/04/30 14:02:54;;;;;;;9.10;4.00;;;23.50;48.60;;;;;;215812;1293;22731;-44
2022/04/30 14:07:59;;;;;;;8.80;4.00;;;23.50;48.50;;;;;;216016;1294;24514;-44
2022/04/30 14:18:25;;;;;;;6.80;3.40;;;23.50;48.80;;;;;;215466;1293;22567;-46
2022/04/30 14:23:30;;;;;;;9.20;3.90;;;23.50;48.40;;;;;;215925;1293;22630;-45
2022/04/30 14:28:34;;;;;;;8.50;4.00;;;23.50;48.30;;;;;;216128;1293;22624;-43
2022/04/30 14:33:37;;;;;;;6.60;3.20;;;23.50;48.20;;;;;;215958;1293;22594;-45
2022/04/30 14:38:41;;;;;;;7.90;3.50;;;23.50;48.20;;;;;;215980;1293;22675;-43
2022/04/30 14:43:48;;;;;;;5.80;3.50;;;23.40;47.90;;;;;;215992;1293;24310;-46
2022/04/30 14:48:54;;;;;;;6.70;3.40;;;23.40;47.80;;;;;;215755;1293;24332;-46
2022/04/30 14:53:58;;;;;;;8.90;3.70;;;23.40;47.60;;;;;;215860;1293;22683;-45
2022/04/30 14:59:04;;;;;;;8.70;3.50;;;23.40;47.90;;;;;;215896;1293;25283;-43
2022/04/30 15:04:07;;;;;;;7.60;3.20;;;23.40;47.50;;;;;;215392;1293;22581;-43
2022/04/30 15:09:11;;;;;;;7.20;3.30;;;23.40;47.70;;;;;;215178;1296;22638;-44
2022/04/30 15:14:15;;;;;;;6.60;3.30;;;23.40;47.40;;;;;;215899;1293;26175;-44
2022/04/30 15:19:19;;;;;;;6.70;3.40;;;23.40;46.80;;;;;;216048;1293;24353;-43
2022/04/30 15:24:23;;;;;;;7.80;3.60;;;23.40;47.30;;;;;;215524;1293;25496;-43
2022/04/30 15:29:29;;;;;;;5.90;3.10;;;23.40;47.20;;;;;;215464;1293;22611;-42
2022/04/30 15:34:34;;;;;;;5.30;3.00;;;23.30;47.20;;;;;;215501;1296;25445;-43
2022/04/30 15:39:38;;;;;;;5.70;2.80;;;23.30;47.50;;;;;;215891;1293;22664;-43
2022/04/30 15:44:41;;;;;;;5.50;3.10;;;23.30;47.10;;;;;;215870;1293;24465;-42
2022/04/30 15:55:12;;;;;;;6.80;3.60;;;23.30;47.10;;;;;;215860;1293;25359;-47
2022/04/30 16:00:16;;;;;;;5.70;3.10;;;23.20;47.20;;;;;;215905;1293;22588;-47
2022/04/30 16:05:22;;;;;;;7.20;3.20;;;23.20;46.80;;;;;;216136;1293;22880;-43
2022/04/30 16:10:26;;;;;;;6.30;3.40;;;23.20;46.80;;;;;;215535;1293;22803;-43
2022/04/30 16:15:30;;;;;;;5.70;3.20;;;23.20;46.70;;;;;;216069;1294;24425;-43
2022/04/30 16:20:36;;;;;;;6.20;3.30;;;23.20;46.60;;;;;;215887;1293;22630;-43
2022/04/30 16:25:41;;;;;;;5.30;3.00;;;23.20;46.40;;;;;;215646;1293;443038;-43
2022/04/30 16:30:45;;;;;;;6.80;3.20;;;23.20;46.40;;;;;;216010;1293;23885;-44
2022/04/30 16:35:48;;;;;;;5.20;3.10;;;23.10;46.20;;;;;;215409;1293;23989;-43
2022/04/30 16:40:52;;;;;;;6.60;3.00;;;23.20;46.50;;;;;;215482;1293;23993;-44
2022/04/30 16:46:01;;;;;;;5.70;3.30;;;23.10;46.30;;;;;;215630;1294;22883;-44
2022/04/30 17:02:13;;;;;;;5.50;2.90;;;23.00;45.10;;;;;;215831;1293;24504;-43
2022/04/30 17:07:23;;;;;;;5.50;3.20;;;23.00;45.50;;;;;;216161;1293;22588;-42
2022/04/30 17:12:27;;;;;;;7.00;3.70;;;23.00;45.50;;;;;;215810;1294;22643;-41
2022/04/30 17:17:37;;;;;;;4.60;2.60;;;23.00;45.70;;;;;;215847;1294;23090;-41
2022/04/30 17:22:46;;;;;;;5.30;3.10;;;23.00;45.30;;;;;;215898;1294;25467;-42
2022/04/30 17:27:54;;;;;;;6.70;3.40;;;23.00;45.30;;;;;;215492;1296;25342;-45
2022/04/30 17:38:24;;;;;;;5.40;3.30;;;23.00;45.20;;;;;;215810;1296;22813;-43
2022/04/30 17:43:28;;;;;;;6.30;2.90;;;22.90;45.20;;;;;;215423;1296;23276;-42
2022/04/30 17:48:35;;;;;;;5.30;3.30;;;22.90;45.40;;;;;;215776;1296;24281;-43
2022/04/30 17:53:42;;;;;;;6.10;3.20;;;22.90;44.90;;;;;;215174;1296;25490;-43
2022/04/30 17:58:46;;;;;;;8.70;3.30;;;22.90;45.30;;;;;;215161;1294;22611;-44
2022/04/30 18:03:49;;;;;;;5.70;3.10;;;22.90;45.00;;;;;;215215;1296;25281;-42
2022/04/30 18:08:53;;;;;;;9.60;3.80;;;22.80;45.40;;;;;;215426;1293;24301;-44
2022/04/30 18:13:59;;;;;;;8.20;3.70;;;22.90;45.50;;;;;;215585;1293;24443;-47
2022/04/30 18:19:04;;;;;;;20.10;5.00;;;22.90;45.20;;;;;;215547;1296;22581;-46
2022/04/30 18:24:11;;;;;;;12.60;5.50;;;22.90;47.40;;;;;;215289;1293;22579;-47
2022/04/30 18:29:16;;;;;;;20.30;6.80;;;23.00;47.80;;;;;;215475;1293;23638;-44
2022/04/30 18:34:21;;;;;;;17.30;7.20;;;23.00;48.70;;;;;;215502;1293;25958;-47
2022/04/30 18:39:36;;;;;;;16.80;7.00;;;23.00;49.90;;;;;;215411;1296;24319;-46
2022/04/30 18:44:41;;;;;;;13.40;7.00;;;23.00;50.70;;;;;;215574;1293;23889;-48
2022/04/30 18:49:45;;;;;;;15.60;7.30;;;23.00;51.00;;;;;;215355;1296;22780;-42
2022/04/30 19:05:37;;;;;;;16.00;6.60;;;23.00;50.80;;;;;;215153;1296;25382;-45
2022/04/30 19:10:44;;;;;;;14.30;6.20;;;23.00;49.90;;;;;;215808;1294;22793;-44
2022/04/30 19:15:56;;;;;;;12.30;6.10;;;23.00;50.00;;;;;;215382;1296;22563;-46
2022/04/30 19:21:03;;;;;;;15.40;6.70;;;23.00;50.00;;;;;;215073;1294;23991;-45
2022/04/30 19:26:08;;;;;;;13.80;6.50;;;23.00;50.10;;;;;;215057;1294;22790;-43
2022/04/30 19:31:22;;;;;;;15.10;6.20;;;23.00;50.10;;;;;;222720;1294;23014;-44
2022/04/30 19:36:33;;;;;;;13.00;5.80;;;23.00;50.10;;;;;;222810;1293;22472;-43
2022/04/30 19:41:39;;;;;;;15.80;6.70;;;23.00;49.80;;;;;;222947;1294;22394;-44
2022/04/30 19:46:42;;;;;;;16.20;6.40;;;23.00;50.00;;;;;;222955;1294;22569;-44
2022/04/30 19:51:49;;;;;;;11.70;6.20;;;23.00;49.70;;;;;;222650;1294;22185;-47
2022/04/30 19:56:58;;;;;;;12.80;6.90;;;23.00;49.70;;;;;;223002;1293;22340;-45
2022/04/30 20:02:03;;;;;;;13.90;6.50;;;23.00;50.10;;;;;;222994;1293;22325;-45
2022/04/30 20:07:07;;;;;;;13.70;6.00;;;22.90;50.10;;;;;;222808;1293;23752;-44
2022/04/30 20:17:33;;;;;;;15.40;6.90;;;22.90;50.30;;;;;;219116;1293;25438;-42
2022/04/30 20:22:41;;;;;;;12.00;6.70;;;22.90;50.70;;;;;;216757;1296;25325;-45
2022/04/30 20:27:54;;;;;;;13.30;6.50;;;22.90;50.50;;;;;;215620;1294;25349;-44
2022/04/30 20:39:00;;;;;;;21.00;6.10;;;22.80;50.40;;;;;;215453;1296;22589;-45
2022/04/30 20:44:33;;;;;;;9.30;5.70;;;22.70;50.60;;;;;;215992;1296;24513;-44
2022/04/30 20:49:39;;;;;;;13.00;6.20;;;22.70;50.30;;;;;;215828;1293;24653;-44
2022/04/30 20:54:44;;;;;;;16.20;6.70;;;22.70;51.10;;;;;;215470;1293;25378;-45
2022/04/30 21:00:00;;;;;;;12.20;6.90;;;22.80;54.00;;;;;;215931;1294;22564;-43
2022/04/30 21:05:07;;;;;;;11.70;6.10;;;22.80;54.00;;;;;;215767;1294;22590;-45
2022/04/30 21:10:21;;;;;;;14.70;6.40;;;22.80;53.40;;;;;;215287;1296;24465;-44
2022/04/30 21:15:37;;;;;;;14.90;7.00;;;22.70;53.30;;;;;;215500;1296;22693;-44
2022/04/30 21:20:53;;;;;;;13.70;6.20;;;22.70;53.70;;;;;;215290;1296;24420;-43
2022/04/30 21:26:12;;;;;;;30.50;12.70;;;22.60;53.30;;;;;;215305;1296;22594;-43
2022/04/30 21:38:10;;;;;;;22.40;9.00;;;22.70;53.90;;;;;;215686;1295;25552;-42
2022/04/30 21:43:47;;;;;;;28.70;12.30;;;22.60;54.00;;;;;;215220;1294;24343;-42
2022/04/30 21:49:12;;;;;;;28.80;10.90;;;22.60;54.10;;;;;;215215;1296;22587;-43
2022/04/30 21:54:22;;;;;;;21.20;9.40;;;22.70;54.20;;;;;;215476;1293;22563;-45
2022/04/30 22:04:52;;;;;;;21.60;9.30;;;22.60;54.40;;;;;;215836;1293;24302;-43
2022/04/30 22:10:01;;;;;;;24.40;9.00;;;22.60;54.10;;;;;;215847;1293;24334;-43
2022/04/30 22:15:11;;;;;;;22.30;9.40;;;22.60;54.50;;;;;;215455;1293;25254;-44
2022/04/30 22:20:18;;;;;;;18.50;8.40;;;22.50;54.40;;;;;;215877;1293;22990;-44
2022/04/30 22:25:23;;;;;;;20.10;8.60;;;22.50;54.20;;;;;;215886;1293;23292;-45
2022/04/30 22:30:26;;;;;;;20.30;9.20;;;22.50;54.20;;;;;;215527;1293;22589;-44
2022/04/30 22:35:33;;;;;;;17.40;8.20;;;22.50;54.20;;;;;;215414;1293;25283;-44
2022/04/30 22:46:03;;;;;;;15.60;6.80;;;22.50;54.40;;;;;;215557;1293;25286;-42
2022/04/30 22:51:11;;;;;;;15.60;7.20;;;22.50;53.80;;;;;;215473;1294;25356;-43
2022/04/30 22:56:14;;;;;;;19.90;7.40;;;22.50;54.50;;;;;;216106;1293;25297;-45
2022/04/30 23:01:19;;;;;;;18.80;7.50;;;22.50;54.00;;;;;;215663;1293;22820;-43
2022/04/30 23:06:24;;;;;;;15.80;7.20;;;22.50;54.00;;;;;;215794;1293;22988;-42
2022/04/30 23:11:27;;;;;;;15.10;6.70;;;22.50;53.90;;;;;;215483;1293;22526;-44
2022/04/30 23:16:31;;;;;;;15.10;7.00;;;22.40;53.80;;;;;;215934;1293;22671;-45
2022/04/30 23:21:35;;;;;;;13.50;6.70;;;22.50;53.90;;;;;;215327;1296;24275;-45
2022/04/30 23:26:39;;;;;;;15.70;7.10;;;22.50;53.90;;;;;;216554;1293;24250;-42
2022/04/30 23:31:44;;;;;;;15.00;7.20;;;22.40;53.90;;;;;;215816;1293;22609;-45
2022/04/30 23:36:48;;;;;;;14.70;7.30;;;22.40;54.00;;;;;;216072;1293;22595;-45
2022/04/30 23:41:53;;;;;;;15.10;6.60;;;22.40;53.80;;;;;;215906;1293;22694;-42
2022/04/30 23:46:57;;;;;;;15.00;6.80;;;22.40;53.80;;;;;;215815;1293;22578;-44
2022/04/30 23:52:02;;;;;;;13.80;7.40;;;22.40;53.80;;;;;;216059;1293;25336;-43
2022/04/30 23:57:06;;;;;;;14.40;7.60;;;22.40;54.00;;;;;;215814;1293;22797;-44
